Rosa, LA (71345)

6:53 PM CDT on March 26, 2015 (GMT -0500)
Evangeline Sub. | | Change Station
CLOSE
Current Station
Personal Weather Station
Location: Opelousas, LA
Elevation: 82 ft
Nearby Weather Stations

Elev 82 ft 30.58 °N, 92.08 °W | Updated 8 minutes ago

Overcast
Overcast
62.6 °F
Feels Like 62.6 °F
N
12.5
Wind Variable Wind from WNW

Today
High -- | Low -- °F
--% Chance of Precip.
Yesterday
High -- | Low -- °F
Precip. -- in
7:04 AM 7:23 PM
Waxing Crescent, 47% visible
Pressure 29.90 in
Visibility 10.0 miles
Clouds Overcast 1600 ft
Dew Point 58 °F
Humidity 86%
Rainfall 0.03 in
Snow Depth Not available.
UV 0 out of 12
Pollen 9.60 out of 12
Air Quality Not available.
Flu Activity Not available.
METAR KOPL 262335Z AUTO 32014G21KT 10SM OVC016 17/14 A2990 RMK AO2 T01710140 PWINO

More Conditions Fewer Conditions

Pressure 29.90 in
Visibility 10.0 miles
Clouds Overcast 1600 ft
Dew Point 58 °F
Humidity 86%
Rainfall 0.03 in
Snow Depth Not available.
UV 0 out of 12
Pollen 9.60 out of 12
Air Quality Not available.
Flu Activity Not available.
METAR KOPL 262335Z AUTO 32014G21KT 10SM OVC016 17/14 A2990 RMK AO2 T01710140 PWINO

More Conditions Fewer Conditions

Nowcast | as of 3:48 PM CDT on March 26, 2015

Areas of showers and isolated thunderstorms are moving through lower Acadiana Parish at this time... including the coastal waters. Storms are moving to the east ahead of a cold front. Rains are expected to end during the early evening hours.

×

10-Day Weather Forecast

Almanac

Astronomy

Mar. 26, 2015 Rise Set
Actual Time
Civil Twilight
Nautical Twilight
Astronomical Twilight
Moon
Length of Visible Light
Length of Day
Tomorrow will be .
, % of the Moon is Illuminated

Today's Extremes

State Highs State Lows

Community

WunderPhotos

Upload Photos

1,808,643 photos uploaded!

WunderBlogs® & News

Nearby

Air Quality

  Air Quality AQ Index Pollutant
Not available.

Snow Depth

Station Depth Elevation

Earthquake Activity

City Distance Mag. Time & Date
Minimum magnitude displayed is 2.5.

Coastal Water Temperatures

Place Temperature

Stations

Nearby Weather Stations

Station Location Temp. Windchill Dew Point Humidity Wind Precip. Elev Updated Type